createdAt,value
2023-04-25T00:02:15.254Z,100102.31
2023-04-25T00:04:41.950Z,100104.03
2023-04-25T00:07:08.760Z,100107.19
2023-04-25T00:09:35.285Z,100114.13
2023-04-25T00:12:02.478Z,100117.19
2023-04-25T00:14:29.814Z,100120.16
2023-04-25T00:16:56.290Z,100123.34
2023-04-25T00:19:22.817Z,100113.59
2023-04-25T00:21:49.285Z,100113.91
2023-04-25T00:24:16.333Z,100109.00
2023-04-25T00:26:42.800Z,100106.50
2023-04-25T00:29:09.255Z,100103.78
2023-04-25T00:31:35.749Z,100114.03
2023-04-25T00:34:02.442Z,100115.50
2023-04-25T00:36:28.883Z,100125.63
2023-04-25T00:38:56.062Z,100122.41
2023-04-25T00:41:22.751Z,100114.91
2023-04-25T00:43:49.867Z,100131.06
2023-04-25T00:46:16.589Z,100119.56
2023-04-25T00:48:43.122Z,100131.56
2023-04-25T00:51:15.689Z,100128.59
2023-04-25T00:53:42.244Z,100130.63
2023-04-25T00:56:08.826Z,100130.53
2023-04-25T00:58:35.762Z,100139.72
2023-04-25T01:01:02.472Z,100128.47
2023-04-25T01:03:30.717Z,100140.94
2023-04-25T01:05:57.628Z,100139.50
2023-04-25T01:08:25.813Z,100131.97
2023-04-25T01:10:52.240Z,100142.44
2023-04-25T01:13:18.825Z,100155.09
2023-04-25T01:15:45.538Z,100137.50
2023-04-25T01:18:12.515Z,100149.44
2023-04-25T01:20:39.685Z,100140.66
2023-04-25T01:23:06.305Z,100146.44
2023-04-25T01:25:32.767Z,100142.59
2023-04-25T01:27:59.807Z,100152.47
2023-04-25T01:30:30.007Z,100151.47
2023-04-25T01:32:57.341Z,100151.47
2023-04-25T01:35:25.033Z,100148.97
2023-04-25T01:37:52.179Z,100154.22
2023-04-25T01:40:19.868Z,100140.66
2023-04-25T01:42:47.008Z,100152.66
2023-04-25T01:45:14.015Z,100160.50
2023-04-25T01:47:41.249Z,100153.38
2023-04-25T01:50:08.893Z,100155.56
2023-04-25T01:52:35.449Z,100158.28
2023-04-25T01:55:03.161Z,100164.16
2023-04-25T01:57:29.662Z,100157.25
2023-04-25T02:00:03.643Z,100167.84
2023-04-25T02:02:30.305Z,100167.59
2023-04-25T02:04:57.201Z,100169.22
2023-04-25T02:07:23.650Z,100168.75
2023-04-25T02:09:50.126Z,100170.88
2023-04-25T02:12:16.601Z,100170.34
2023-04-25T02:14:43.085Z,100172.59
2023-04-25T02:17:09.698Z,100178.28
2023-04-25T02:19:36.302Z,100176.59
2023-04-25T02:22:02.848Z,100182.00
2023-04-25T02:24:29.419Z,100182.75
2023-04-25T02:26:57.041Z,100191.22
2023-04-25T02:29:24.045Z,100194.69
2023-04-25T02:31:50.858Z,100187.34
2023-04-25T02:34:17.425Z,100196.94
2023-04-25T02:36:43.933Z,100186.47
2023-04-25T02:39:11.318Z,100189.50
2023-04-25T02:41:37.910Z,100189.22
2023-04-25T02:44:04.447Z,100189.38
2023-04-25T02:46:39.060Z,100191.47
2023-04-25T02:49:07.346Z,100191.81
2023-04-25T02:51:33.890Z,100198.53
2023-04-25T02:54:00.411Z,100191.47
2023-04-25T02:56:27.297Z,100194.84
2023-04-25T02:58:54.772Z,100193.78
2023-04-25T03:01:21.440Z,100187.19
2023-04-25T03:03:48.090Z,100190.47
2023-04-25T03:06:15.078Z,100182.72
2023-04-25T03:08:41.553Z,100183.69
2023-04-25T03:11:08.020Z,100187.44
2023-04-25T03:13:34.587Z,100187.91
2023-04-25T03:16:01.261Z,100185.38
2023-04-25T03:18:27.755Z,100193.75
2023-04-25T03:20:54.218Z,100180.28
2023-04-25T03:23:20.924Z,100187.31
2023-04-25T03:25:47.427Z,100183.41
2023-04-25T03:28:14.780Z,100195.28
2023-04-25T03:30:41.259Z,100199.22
2023-04-25T03:33:07.839Z,100191.16
2023-04-25T03:35:34.420Z,100199.00
2023-04-25T03:38:01.026Z,100199.56
2023-04-25T03:40:27.552Z,100206.53
2023-04-25T03:42:54.051Z,100209.88
2023-04-25T03:45:20.557Z,100218.44
2023-04-25T03:47:47.048Z,100218.75
2023-04-25T03:50:13.660Z,100215.75
2023-04-25T03:52:40.219Z,100210.00
2023-04-25T03:55:07.049Z,100217.91
2023-04-25T03:57:33.538Z,100217.50
2023-04-25T04:00:00.002Z,100215.41
2023-04-25T04:02:26.645Z,100214.66
2023-04-25T04:04:53.426Z,100211.25
2023-04-25T04:07:20.096Z,100216.28
2023-04-25T04:09:46.572Z,100223.31
2023-04-25T04:12:13.110Z,100221.59
2023-04-25T04:14:39.587Z,100233.19
2023-04-25T04:17:06.993Z,100229.84
2023-04-25T04:19:33.482Z,100222.81
2023-04-25T04:21:59.968Z,100226.34
2023-04-25T04:24:26.443Z,100226.19
2023-04-25T04:26:53.143Z,100223.56
2023-04-25T04:29:22.261Z,100234.56
2023-04-25T04:31:50.544Z,100231.47
2023-04-25T04:34:20.216Z,100243.16
2023-04-25T04:36:47.850Z,100239.41
2023-04-25T04:39:14.836Z,100243.25
2023-04-25T04:41:41.541Z,100252.75
2023-04-25T04:44:09.948Z,100245.84
2023-04-25T04:46:38.868Z,100246.91
2023-04-25T04:49:06.233Z,100249.47
2023-04-25T04:51:32.825Z,100251.78
2023-04-25T04:54:03.290Z,100262.56
2023-04-25T04:56:33.351Z,100264.34
2023-04-25T04:58:59.956Z,100260.94
2023-04-25T05:01:27.388Z,100266.72
2023-04-25T05:03:54.768Z,100267.13
2023-04-25T05:06:21.719Z,100273.91
2023-04-25T05:08:48.250Z,100276.28
2023-04-25T05:11:14.741Z,100281.16
2023-04-25T05:13:41.224Z,100268.78
2023-04-25T05:16:07.749Z,100272.88
2023-04-25T05:18:35.345Z,100272.75
2023-04-25T05:21:01.884Z,100273.41
2023-04-25T05:23:29.019Z,100282.41
2023-04-25T05:25:55.649Z,100280.13
2023-04-25T05:28:22.351Z,100286.31
2023-04-25T05:30:49.103Z,100290.53
2023-04-25T05:33:15.835Z,100293.16
2023-04-25T05:35:42.554Z,100300.66
2023-04-25T05:38:09.130Z,100296.06
2023-04-25T05:40:35.717Z,100307.44
2023-04-25T05:43:02.317Z,100293.22
2023-04-25T05:45:28.890Z,100298.59
2023-04-25T05:47:55.425Z,100302.47
2023-04-25T05:50:22.214Z,100312.47
2023-04-25T05:52:48.729Z,100306.59
2023-04-25T05:55:15.912Z,100311.47
2023-04-25T05:57:43.433Z,100315.41
2023-04-25T06:00:10.668Z,100316.00
2023-04-25T06:02:37.287Z,100325.25
2023-04-25T06:05:04.748Z,100332.97
2023-04-25T06:07:31.889Z,100323.59
2023-04-25T06:09:58.449Z,100330.00
2023-04-25T06:12:24.895Z,100330.31
2023-04-25T06:14:51.334Z,100331.00
2023-04-25T06:17:17.834Z,100335.81
2023-04-25T06:19:44.336Z,100344.44
2023-04-25T06:22:11.283Z,100336.56
2023-04-25T06:24:37.763Z,100345.03
2023-04-25T06:27:04.238Z,100341.59
2023-04-25T06:29:31.827Z,100339.66
2023-04-25T06:31:58.463Z,100334.69
2023-04-25T06:34:25.122Z,100338.00
2023-04-25T06:36:51.567Z,100341.66
2023-04-25T06:39:18.075Z,100353.03
2023-04-25T06:41:44.496Z,100341.72
2023-04-25T06:44:11.112Z,100339.16
2023-04-25T06:46:38.705Z,100348.84
2023-04-25T06:49:05.229Z,100351.41
2023-04-25T06:51:31.871Z,100353.22
2023-04-25T06:53:58.517Z,100351.91
2023-04-25T06:56:25.059Z,100353.75
2023-04-25T06:58:51.773Z,100369.63
2023-04-25T07:01:18.554Z,100364.09
2023-04-25T07:03:45.207Z,100367.66
2023-04-25T07:06:11.720Z,100365.34
2023-04-25T07:08:38.176Z,100362.69
2023-04-25T07:11:04.673Z,100367.56
2023-04-25T07:13:31.253Z,100371.28
2023-04-25T07:15:58.102Z,100364.28
2023-04-25T07:18:24.588Z,100362.59
2023-04-25T07:20:51.029Z,100357.81
2023-04-25T07:23:17.514Z,100365.28
2023-04-25T07:25:43.975Z,100367.66
2023-04-25T07:28:10.502Z,100364.41
2023-04-25T07:30:37.752Z,100369.69
2023-04-25T07:33:04.318Z,100371.91
2023-04-25T07:35:30.844Z,100373.47
2023-04-25T07:37:57.379Z,100374.72
2023-04-25T07:40:23.899Z,100373.25
2023-04-25T07:42:50.531Z,100366.09
2023-04-25T07:45:17.207Z,100363.25
2023-04-25T07:47:43.707Z,100369.44
2023-04-25T07:50:11.164Z,100375.78
2023-04-25T07:52:37.709Z,100373.75
2023-04-25T07:55:04.543Z,100376.59
2023-04-25T07:57:31.293Z,100376.63
2023-04-25T07:59:57.846Z,100368.84
2023-04-25T08:02:24.490Z,100380.78
2023-04-25T08:04:51.305Z,100385.53
2023-04-25T08:07:17.922Z,100395.94
2023-04-25T08:09:44.517Z,100384.56
2023-04-25T08:12:10.995Z,100388.69
2023-04-25T08:14:38.315Z,100398.31
2023-04-25T08:17:04.984Z,100397.53
2023-04-25T08:19:31.848Z,100384.38
2023-04-25T08:21:58.705Z,100395.94
2023-04-25T08:24:25.174Z,100401.66
2023-04-25T08:26:52.700Z,100407.31
2023-04-25T08:29:19.175Z,100421.97
2023-04-25T08:31:45.846Z,100443.75
2023-04-25T08:34:12.533Z,100455.81
2023-04-25T08:36:40.434Z,100474.09
2023-04-25T08:39:07.997Z,100470.53
2023-04-25T08:41:34.567Z,100476.09
2023-04-25T08:44:02.214Z,100469.69
2023-04-25T08:46:29.423Z,100462.56
2023-04-25T08:48:59.673Z,100464.44
2023-04-25T08:51:26.878Z,100468.53
2023-04-25T08:53:54.399Z,100466.00
2023-04-25T08:56:25.124Z,100468.19
2023-04-25T08:58:52.296Z,100470.63
2023-04-25T09:01:19.561Z,100454.50
2023-04-25T09:03:48.217Z,100464.13
2023-04-25T09:06:16.081Z,100465.00
2023-04-25T09:08:42.734Z,100465.59
2023-04-25T09:11:09.188Z,100472.56
2023-04-25T09:13:35.875Z,100453.47
2023-04-25T09:16:02.774Z,100453.66
2023-04-25T09:18:31.362Z,100456.50
2023-04-25T09:23:46.835Z,100489.31
2023-04-25T09:26:18.226Z,100486.94
2023-04-25T09:28:44.800Z,100499.44
2023-04-25T09:31:12.592Z,100497.97
2023-04-25T09:33:39.370Z,100498.47
2023-04-25T09:36:08.219Z,100494.53
2023-04-25T09:39:01.692Z,100506.28
2023-04-25T09:41:28.111Z,100532.28
2023-04-25T09:43:58.172Z,100544.53
2023-04-25T09:46:26.339Z,100542.06
2023-04-25T09:48:54.810Z,100528.94
2023-04-25T09:51:26.825Z,100520.72
2023-04-25T09:53:53.584Z,100526.03
2023-04-25T09:56:21.149Z,100525.56
2023-04-25T09:58:48.514Z,100516.22
2023-04-25T10:01:15.834Z,100521.41
2023-04-25T10:03:43.472Z,100514.22
2023-04-25T10:06:13.733Z,100514.34
2023-04-25T10:08:41.170Z,100516.97
2023-04-25T10:11:09.125Z,100512.63
2023-04-25T10:13:36.705Z,100504.94
2023-04-25T10:16:05.790Z,100518.75
2023-04-25T10:18:33.312Z,100518.00
2023-04-25T10:21:01.779Z,100531.47
2023-04-25T10:23:30.315Z,100527.88
2023-04-25T10:25:56.979Z,100517.31
2023-04-25T10:28:23.433Z,100539.69
2023-04-25T10:31:03.891Z,100544.31
2023-04-25T10:33:43.160Z,100543.19
2023-04-25T10:36:10.510Z,100557.53
2023-04-25T10:38:38.116Z,100557.06
2023-04-25T10:41:06.254Z,100563.22
2023-04-25T10:43:32.767Z,100570.78
2023-04-25T10:46:02.703Z,100575.22
2023-04-25T10:48:32.107Z,100585.31
2023-04-25T10:51:12.097Z,100591.63
2023-04-25T10:53:38.582Z,100614.38
2023-04-25T10:56:22.335Z,100605.47
2023-04-25T10:58:51.313Z,100601.56
2023-04-25T11:01:25.728Z,100598.34
2023-04-25T11:03:59.156Z,100598.16
2023-04-25T11:06:32.773Z,100600.78
2023-04-25T11:09:01.382Z,100600.47
2023-04-25T11:11:28.016Z,100599.72
2023-04-25T11:13:54.464Z,100597.31
2023-04-25T11:19:07.314Z,100594.47
2023-04-25T11:21:33.912Z,100586.09
2023-04-25T11:24:00.919Z,100585.72
2023-04-25T11:26:27.523Z,100591.16
2023-04-25T11:28:58.884Z,100587.44
2023-04-25T11:31:26.173Z,100583.16
2023-04-25T11:33:55.892Z,100586.34
2023-04-25T11:36:24.022Z,100584.31
2023-04-25T11:38:52.584Z,100588.53
2023-04-25T11:41:19.982Z,100578.41
2023-04-25T11:43:46.463Z,100586.88
2023-04-25T11:46:12.966Z,100590.78
2023-04-25T11:48:43.401Z,100611.84
2023-04-25T11:51:10.565Z,100631.91
2023-04-25T11:53:37.175Z,100649.25
2023-04-25T11:56:11.232Z,100635.84
2023-04-25T11:59:02.880Z,100650.16
2023-04-25T12:01:35.617Z,100641.31
2023-04-25T12:04:13.676Z,100644.09
2023-04-25T12:06:41.688Z,100651.78
2023-04-25T12:09:10.259Z,100637.69
2023-04-25T12:11:48.396Z,100642.47
2023-04-25T12:14:27.166Z,100641.38
2023-04-25T12:16:54.295Z,100627.66
2023-04-25T12:19:21.358Z,100634.25
2023-04-25T12:24:24.432Z,100634.84
2023-04-25T12:27:02.310Z,100633.09
2023-04-25T12:29:34.823Z,100626.59
2023-04-25T12:32:08.942Z,100631.56
2023-04-25T12:34:36.961Z,100627.91
2023-04-25T12:37:03.569Z,100626.47
2023-04-25T12:39:30.051Z,100615.84
2023-04-25T12:41:56.598Z,100623.81
2023-04-25T12:44:23.455Z,100626.56
2023-04-25T12:46:50.071Z,100616.28
2023-04-25T12:49:19.198Z,100634.03
2023-04-25T12:51:46.122Z,100626.28
2023-04-25T12:54:12.706Z,100635.69
2023-04-25T12:56:39.414Z,100623.06
2023-04-25T12:59:06.013Z,100647.41
2023-04-25T13:01:34.726Z,100654.00
2023-04-25T13:04:03.049Z,100660.41
2023-04-25T13:06:31.392Z,100656.66
2023-04-25T13:08:57.908Z,100669.56
2023-04-25T13:11:24.623Z,100669.75
2023-04-25T13:13:51.345Z,100660.16
2023-04-25T13:16:18.622Z,100684.38
2023-04-25T13:18:45.128Z,100696.28
2023-04-25T13:21:14.489Z,100693.69
2023-04-25T13:23:42.796Z,100689.28
2023-04-25T13:26:09.457Z,100688.28
2023-04-25T13:28:35.927Z,100685.94
2023-04-25T13:31:02.399Z,100694.03
2023-04-25T13:33:29.733Z,100679.09
2023-04-25T13:35:58.260Z,100678.03
2023-04-25T13:38:25.630Z,100695.72
2023-04-25T13:40:55.782Z,100698.16
2023-04-25T13:43:25.080Z,100696.28
2023-04-25T13:45:52.489Z,100691.53
2023-04-25T13:48:20.914Z,100694.66
2023-04-25T13:50:47.521Z,100697.09
2023-04-25T13:53:14.128Z,100687.63
2023-04-25T13:55:40.674Z,100683.25
2023-04-25T13:58:08.941Z,100688.75
2023-04-25T14:00:40.465Z,100692.59
2023-04-25T14:03:08.551Z,100692.25
2023-04-25T14:05:39.219Z,100698.72
2023-04-25T14:08:10.227Z,100698.38
2023-04-25T14:10:37.218Z,100676.22
2023-04-25T14:13:04.462Z,100683.25
2023-04-25T14:15:35.116Z,100689.28
2023-04-25T14:18:02.832Z,100694.47
2023-04-25T14:20:30.344Z,100692.44
2023-04-25T14:22:58.923Z,100692.66
2023-04-25T14:25:25.949Z,100684.16
2023-04-25T14:27:52.545Z,100700.16
2023-04-25T14:30:19.973Z,100710.56
2023-04-25T14:32:46.788Z,100706.22
2023-04-25T14:35:13.670Z,100701.69
2023-04-25T14:37:40.520Z,100705.13
2023-04-25T14:40:09.768Z,100698.97
2023-04-25T14:42:36.479Z,100715.72
2023-04-25T14:45:04.628Z,100708.09
2023-04-25T14:47:31.175Z,100722.66
2023-04-25T14:49:57.657Z,100720.31
2023-04-25T14:52:24.293Z,100719.03
2023-04-25T14:54:51.120Z,100726.47
2023-04-25T14:57:18.023Z,100733.31
2023-04-25T14:59:44.501Z,100729.72
2023-04-25T15:02:11.741Z,100740.84
2023-04-25T15:04:38.456Z,100741.06
2023-04-25T15:07:05.101Z,100744.84
2023-04-25T15:09:31.591Z,100727.28
2023-04-25T15:11:58.807Z,100731.53
2023-04-25T15:14:25.286Z,100735.41
2023-04-25T15:16:51.796Z,100746.56
2023-04-25T15:19:18.272Z,100752.38
2023-04-25T15:21:44.763Z,100748.53
2023-04-25T15:24:12.041Z,100759.06
2023-04-25T15:26:38.538Z,100759.00
2023-04-25T15:29:06.821Z,100758.63
2023-04-25T15:31:33.529Z,100768.25
2023-04-25T15:34:00.015Z,100777.44
2023-04-25T15:36:26.566Z,100802.78
2023-04-25T15:38:53.093Z,100795.94
2023-04-25T15:41:19.568Z,100783.44
2023-04-25T15:43:49.010Z,100789.78
2023-04-25T15:46:16.157Z,100791.88
2023-04-25T15:48:42.760Z,100798.22
2023-04-25T15:51:09.832Z,100793.94
2023-04-25T15:53:36.475Z,100797.56
2023-04-25T15:56:04.627Z,100787.22
2023-04-25T15:58:31.218Z,100787.81
2023-04-25T16:00:57.878Z,100792.28
2023-04-25T16:03:24.551Z,100786.97
2023-04-25T16:05:51.157Z,100785.88
2023-04-25T16:08:17.597Z,100782.50
2023-04-25T16:10:44.151Z,100800.66
2023-04-25T16:13:11.297Z,100801.53
2023-04-25T16:15:37.870Z,100788.53
2023-04-25T16:18:04.697Z,100794.66
2023-04-25T16:20:31.250Z,100796.13
2023-04-25T16:22:57.792Z,100814.63
2023-04-25T16:25:24.392Z,100833.16
2023-04-25T16:27:50.861Z,100816.81
2023-04-25T16:30:17.408Z,100813.66
2023-04-25T16:32:45.404Z,100829.94
2023-04-25T16:35:12.343Z,100814.53
2023-04-25T16:37:38.863Z,100813.97
2023-04-25T16:40:08.917Z,100806.56
2023-04-25T16:42:36.357Z,100825.56
2023-04-25T16:45:05.012Z,100818.31
2023-04-25T16:47:32.132Z,100834.19
2023-04-25T16:50:00.531Z,100843.69
2023-04-25T16:52:27.137Z,100825.44
2023-04-25T16:54:53.596Z,100828.78
2023-04-25T16:57:21.162Z,100825.16
2023-04-25T16:59:47.776Z,100823.34
2023-04-25T17:02:14.923Z,100846.38
2023-04-25T17:04:41.792Z,100839.91
2023-04-25T17:07:08.762Z,100836.50
2023-04-25T17:09:35.758Z,100844.91
2023-04-25T17:12:05.097Z,100849.63
2023-04-25T17:14:33.256Z,100840.53
2023-04-25T17:17:00.095Z,100847.53
2023-04-25T17:19:27.446Z,100835.50
2023-04-25T17:21:54.001Z,100831.69
2023-04-25T17:24:21.916Z,100831.69
2023-04-25T17:26:48.939Z,100830.97
2023-04-25T17:29:15.726Z,100835.31
2023-04-25T17:31:42.776Z,100828.00
2023-04-25T17:34:09.872Z,100831.56
2023-04-25T17:36:36.522Z,100826.69
2023-04-25T17:39:06.233Z,100828.97
2023-04-25T17:41:32.847Z,100820.69
2023-04-25T17:43:59.303Z,100828.50
2023-04-25T17:46:27.491Z,100828.34
2023-04-25T17:48:54.389Z,100834.59
2023-04-25T17:51:21.276Z,100835.09
2023-04-25T17:53:48.014Z,100833.56
2023-04-25T17:56:25.866Z,100836.75
2023-04-25T17:58:53.238Z,100842.25
2023-04-25T18:01:19.978Z,100850.13
2023-04-25T18:03:49.021Z,100850.38
2023-04-25T18:06:16.257Z,100858.22
2023-04-25T18:08:44.819Z,100856.63
2023-04-25T18:11:12.154Z,100870.16
2023-04-25T18:13:39.727Z,100886.16
2023-04-25T18:16:07.314Z,100896.41
2023-04-25T18:18:36.083Z,100903.28
2023-04-25T18:21:05.427Z,100903.13
2023-04-25T18:23:34.493Z,100916.41
2023-04-25T18:26:04.838Z,100914.09
2023-04-25T18:28:34.422Z,100920.56
2023-04-25T18:31:01.349Z,100920.09
2023-04-25T18:33:27.915Z,100910.56
2023-04-25T18:35:59.147Z,100906.81
2023-04-25T18:41:08.348Z,100924.91
2023-04-25T18:43:44.533Z,100918.63
2023-04-25T18:46:11.167Z,100940.75
2023-04-25T18:48:38.646Z,100950.25
2023-04-25T18:51:05.681Z,100935.16
2023-04-25T18:53:32.479Z,100936.78
2023-04-25T18:55:58.919Z,100939.97
2023-04-25T18:58:26.642Z,100948.75
2023-04-25T19:00:53.501Z,100952.91
2023-04-25T19:03:20.258Z,100952.03
2023-04-25T19:05:46.778Z,100958.81
2023-04-25T19:08:13.259Z,100954.47
2023-04-25T19:10:39.733Z,100968.06
2023-04-25T19:13:07.557Z,100967.53
2023-04-25T19:15:34.265Z,100971.34
2023-04-25T19:18:01.278Z,100972.91
2023-04-25T19:20:28.130Z,100968.63
2023-04-25T19:22:54.691Z,100968.06
2023-04-25T19:25:21.187Z,100974.59
2023-04-25T19:27:47.701Z,100986.00
2023-04-25T19:30:14.696Z,100975.50
2023-04-25T19:32:41.306Z,100979.84
2023-04-25T19:35:11.633Z,100973.53
2023-04-25T19:37:41.067Z,100986.47
2023-04-25T19:40:08.470Z,100978.00
2023-04-25T19:42:35.700Z,100976.44
2023-04-25T19:45:02.524Z,100975.41
2023-04-25T19:47:29.300Z,100973.94
2023-04-25T19:49:55.837Z,100970.91
2023-04-25T19:52:22.484Z,100967.69
2023-04-25T19:54:49.340Z,100968.84
2023-04-25T19:57:15.857Z,100972.75
2023-04-25T19:59:45.726Z,100968.91
2023-04-25T20:02:12.234Z,100979.53
2023-04-25T20:04:38.899Z,100972.47
2023-04-25T20:07:05.562Z,100980.22
2023-04-25T20:09:32.095Z,100992.41
2023-04-25T20:11:58.673Z,101013.94
2023-04-25T20:14:26.462Z,101015.66
2023-04-25T20:16:54.242Z,101019.03
2023-04-25T20:19:20.971Z,101042.78
2023-04-25T20:21:47.475Z,101035.34
2023-04-25T20:24:13.933Z,101026.16
2023-04-25T20:26:40.914Z,101004.38
2023-04-25T20:29:09.805Z,100999.44
2023-04-25T20:31:36.976Z,100996.31
2023-04-25T20:34:03.827Z,100999.66
2023-04-25T20:36:31.820Z,101006.38
2023-04-25T20:38:58.486Z,101003.97
2023-04-25T20:41:25.188Z,101002.25
2023-04-25T20:43:53.278Z,101010.56
2023-04-25T20:46:20.184Z,101007.78
2023-04-25T20:48:46.828Z,101004.13
2023-04-25T20:51:13.323Z,101000.81
2023-04-25T20:53:39.847Z,101002.75
2023-04-25T20:56:06.681Z,101004.00
2023-04-25T20:58:33.542Z,101006.81
2023-04-25T21:01:00.141Z,101008.06
2023-04-25T21:03:26.835Z,101013.13
2023-04-25T21:05:53.724Z,101019.69
2023-04-25T21:08:20.210Z,101012.94
2023-04-25T21:10:46.788Z,101026.16
2023-04-25T21:13:13.439Z,101033.44
2023-04-25T21:15:39.987Z,101033.22
2023-04-25T21:18:07.249Z,101024.72
2023-04-25T21:20:33.810Z,101013.38
2023-04-25T21:23:00.336Z,101010.50
2023-04-25T21:25:31.043Z,101006.41
2023-04-25T21:27:59.540Z,101012.06
2023-04-25T21:30:26.550Z,101014.72
2023-04-25T21:32:55.297Z,101012.03
2023-04-25T21:35:23.228Z,101009.97
2023-04-25T21:37:50.101Z,101007.41
2023-04-25T21:40:17.026Z,101016.53
2023-04-25T21:42:45.793Z,101017.66
2023-04-25T21:45:12.541Z,101024.34
2023-04-25T21:47:39.384Z,101026.72
2023-04-25T21:50:06.482Z,101016.13
2023-04-25T21:52:33.036Z,101019.63
2023-04-25T21:54:59.589Z,101024.28
2023-04-25T21:57:26.438Z,101023.88
2023-04-25T21:59:53.566Z,101028.44
2023-04-25T22:02:20.181Z,101033.16
2023-04-25T22:04:49.867Z,101033.09
2023-04-25T22:07:16.586Z,101023.63
2023-04-25T22:09:53.902Z,101028.38
2023-04-25T22:12:21.339Z,101016.69
2023-04-25T22:14:47.869Z,101031.16
2023-04-25T22:17:14.763Z,101030.84
2023-04-25T22:19:41.418Z,101034.34
2023-04-25T22:22:07.890Z,101035.78
2023-04-25T22:24:34.458Z,101034.44
2023-04-25T22:27:00.911Z,101034.03
2023-04-25T22:29:27.448Z,101037.00
2023-04-25T22:31:54.048Z,101038.47
2023-04-25T22:34:21.053Z,101034.66
2023-04-25T22:36:47.482Z,101035.50
2023-04-25T22:39:15.380Z,101036.50
2023-04-25T22:41:42.656Z,101044.66
2023-04-25T22:44:09.402Z,101039.94
2023-04-25T22:46:35.847Z,101044.41
2023-04-25T22:49:02.730Z,101041.41
2023-04-25T22:51:29.510Z,101048.69
2023-04-25T22:53:56.216Z,101046.66
2023-04-25T22:56:24.672Z,101034.50
2023-04-25T22:58:51.731Z,101037.06
2023-04-25T23:01:19.401Z,101037.00
2023-04-25T23:03:46.329Z,101048.22
2023-04-25T23:06:13.328Z,101044.81
2023-04-25T23:08:40.714Z,101049.59
2023-04-25T23:11:08.041Z,101048.53
2023-04-25T23:13:37.653Z,101051.25
2023-04-25T23:16:10.918Z,101057.78
2023-04-25T23:18:39.031Z,101054.00
2023-04-25T23:21:12.294Z,101057.66
2023-04-25T23:23:39.121Z,101053.94
2023-04-25T23:26:09.899Z,101062.28
2023-04-25T23:28:39.880Z,101053.88
2023-04-25T23:31:09.369Z,101057.72
2023-04-25T23:33:36.410Z,101062.00
2023-04-25T23:36:02.941Z,101064.22
2023-04-25T23:38:29.541Z,101066.78
2023-04-25T23:40:56.192Z,101065.50
2023-04-25T23:43:22.785Z,101067.00
2023-04-25T23:45:49.443Z,101082.50
2023-04-25T23:48:16.023Z,101086.22
2023-04-25T23:50:42.639Z,101096.50
2023-04-25T23:53:09.534Z,101103.53
2023-04-25T23:55:36.136Z,101093.81
2023-04-25T23:58:03.587Z,101091.47
